createdAt,value
2023-03-08T00:00:19.300Z,10.70
2023-03-08T00:08:24.684Z,10.70
2023-03-08T00:16:32.964Z,10.90
2023-03-08T00:24:38.354Z,11.10
2023-03-08T00:32:46.412Z,10.80
2023-03-08T00:40:51.915Z,10.90
2023-03-08T00:49:00.035Z,11.10
2023-03-08T00:57:05.367Z,11.30
2023-03-08T01:05:14.201Z,11.40
2023-03-08T01:13:19.987Z,11.30
2023-03-08T01:21:31.857Z,11.50
2023-03-08T01:29:37.276Z,11.10
2023-03-08T01:37:45.327Z,10.90
2023-03-08T01:46:10.442Z,11.10
2023-03-08T01:54:22.692Z,11.30
2023-03-08T02:02:32.815Z,11.40
2023-03-08T02:10:41.454Z,11.20
2023-03-08T02:18:59.061Z,10.50
2023-03-08T02:27:10.986Z,10.60
2023-03-08T02:35:16.395Z,10.40
2023-03-08T02:43:24.448Z,10.40
2023-03-08T02:51:29.888Z,10.60
2023-03-08T02:59:39.673Z,10.90
2023-03-08T03:07:46.448Z,11.10
2023-03-08T03:15:59.138Z,11.40
2023-03-08T03:24:04.869Z,11.70
2023-03-08T03:32:21.828Z,11.90
2023-03-08T03:40:27.587Z,12.30
2023-03-08T03:48:41.230Z,11.80
2023-03-08T03:56:47.393Z,11.00
2023-03-08T04:04:55.695Z,11.10
2023-03-08T04:13:05.386Z,11.10
2023-03-08T04:21:14.400Z,11.00
2023-03-08T04:29:20.021Z,11.10
2023-03-08T04:37:36.416Z,10.90
2023-03-08T04:45:47.110Z,11.20
2023-03-08T04:53:56.353Z,11.30
2023-03-08T05:02:01.878Z,11.40
2023-03-08T05:10:13.531Z,11.20
2023-03-08T05:18:20.156Z,10.90
2023-03-08T05:26:28.831Z,11.30
2023-03-08T05:34:35.219Z,11.70
2023-03-08T05:42:45.751Z,11.80
2023-03-08T05:50:53.260Z,11.90
2023-03-08T05:59:01.664Z,11.40
2023-03-08T06:07:08.202Z,12.00
2023-03-08T06:15:21.685Z,12.40
2023-03-08T06:23:27.971Z,12.70
2023-03-08T06:31:36.085Z,12.80
2023-03-08T06:39:43.150Z,13.10
2023-03-08T06:47:51.422Z,13.00
2023-03-08T06:55:57.775Z,13.40
2023-03-08T07:04:06.017Z,13.50
2023-03-08T07:12:11.890Z,13.60
2023-03-08T07:20:21.488Z,14.00
2023-03-08T07:28:27.029Z,14.40
2023-03-08T07:36:36.105Z,14.30
2023-03-08T07:44:41.496Z,14.50
2023-03-08T07:52:49.707Z,15.30
2023-03-08T08:00:56.068Z,16.00
2023-03-08T08:09:04.148Z,15.90
2023-03-08T08:17:10.121Z,15.80
2023-03-08T08:25:18.178Z,16.50
2023-03-08T08:33:23.725Z,18.30
2023-03-08T08:41:32.515Z,21.00
2023-03-08T08:49:38.017Z,20.90
2023-03-08T08:57:45.976Z,20.40
2023-03-08T09:05:51.348Z,20.30
2023-03-08T09:13:59.491Z,20.30
2023-03-08T09:22:05.094Z,20.40
2023-03-08T09:30:17.033Z,19.90
2023-03-08T09:38:23.306Z,19.40
2023-03-08T09:46:37.412Z,20.00
2023-03-08T09:54:43.513Z,20.10
2023-03-08T10:03:04.694Z,20.10
2023-03-08T10:11:20.762Z,20.00
2023-03-08T10:19:34.083Z,22.50
2023-03-08T10:27:39.687Z,23.40
2023-03-08T10:36:00.240Z,28.70
2023-03-08T10:44:06.756Z,30.20
2023-03-08T10:52:28.159Z,30.70
2023-03-08T11:00:38.473Z,28.20
2023-03-08T11:08:57.251Z,30.10
2023-03-08T11:17:16.837Z,35.20
2023-03-08T11:25:41.076Z,30.90
2023-03-08T11:34:10.155Z,26.30
2023-03-08T11:42:28.827Z,23.20
2023-03-08T11:50:39.051Z,21.70
2023-03-08T11:58:54.307Z,21.10
2023-03-08T12:07:03.485Z,21.20
2023-03-08T12:15:23.623Z,21.40
2023-03-08T12:23:36.658Z,21.30
2023-03-08T12:31:48.170Z,20.80
2023-03-08T12:40:04.380Z,20.20
2023-03-08T12:48:26.997Z,19.70
2023-03-08T12:56:35.958Z,19.40
2023-03-08T13:04:44.400Z,19.50
2023-03-08T13:13:37.018Z,19.20
2023-03-08T13:21:56.621Z,19.30
2023-03-08T13:30:05.879Z,20.00
2023-03-08T13:38:25.020Z,20.60
2023-03-08T13:46:30.787Z,20.60
2023-03-08T13:54:41.091Z,20.30
2023-03-08T14:02:49.764Z,20.40
2023-03-08T14:11:02.085Z,20.20
2023-03-08T14:19:14.581Z,20.40
2023-03-08T14:27:41.735Z,19.90
2023-03-08T14:35:55.571Z,19.40
2023-03-08T14:44:04.638Z,19.30
2023-03-08T14:52:23.188Z,19.10
2023-03-08T15:00:32.108Z,18.80
2023-03-08T15:08:37.460Z,18.70
2023-03-08T15:16:45.468Z,18.70
2023-03-08T15:24:51.005Z,18.20
2023-03-08T15:32:59.758Z,18.00
2023-03-08T15:41:05.415Z,17.90
2023-03-08T15:49:14.498Z,17.90
2023-03-08T15:57:20.211Z,17.70
2023-03-08T16:05:29.283Z,17.30
2023-03-08T16:13:35.431Z,17.20
2023-03-08T16:21:43.880Z,17.20
2023-03-08T16:29:54.054Z,17.00
2023-03-08T16:38:07.219Z,17.00
2023-03-08T16:46:17.878Z,17.00
2023-03-08T16:54:26.258Z,17.00
2023-03-08T17:02:31.802Z,16.90
2023-03-08T17:10:43.732Z,16.90
2023-03-08T17:18:49.326Z,16.90
2023-03-08T17:26:59.618Z,16.90
2023-03-08T17:35:05.617Z,16.60
2023-03-08T17:43:13.548Z,16.60
2023-03-08T17:51:21.015Z,16.70
2023-03-08T17:59:28.940Z,16.60
2023-03-08T18:07:34.342Z,16.60
2023-03-08T18:15:54.949Z,16.40
2023-03-08T18:24:01.019Z,16.20
2023-03-08T18:32:11.360Z,16.30
2023-03-08T18:40:17.263Z,16.00
2023-03-08T18:48:27.105Z,16.00
2023-03-08T18:56:32.966Z,16.10
2023-03-08T19:04:45.288Z,16.20
2023-03-08T19:12:50.724Z,15.40
2023-03-08T19:20:59.068Z,15.00
2023-03-08T19:29:05.568Z,14.40
2023-03-08T19:37:16.433Z,14.50
2023-03-08T19:45:25.416Z,14.30
2023-03-08T19:53:34.134Z,14.90
2023-03-08T20:01:48.927Z,15.30
2023-03-08T20:10:15.423Z,14.90
2023-03-08T20:18:21.699Z,15.20
2023-03-08T20:26:31.849Z,15.50
2023-03-08T20:34:37.270Z,15.20
2023-03-08T20:42:45.530Z,15.20
2023-03-08T20:50:52.241Z,15.30
2023-03-08T20:59:01.155Z,15.20
2023-03-08T21:07:07.905Z,15.30
2023-03-08T21:15:16.068Z,15.40
2023-03-08T21:23:23.276Z,15.50
2023-03-08T21:31:31.458Z,15.40
2023-03-08T21:39:37.117Z,15.50
2023-03-08T21:47:45.170Z,14.90
2023-03-08T21:55:50.468Z,15.80
2023-03-08T22:03:59.710Z,16.10
2023-03-08T22:12:05.130Z,16.10
2023-03-08T22:20:14.915Z,16.00
2023-03-08T22:28:20.538Z,16.00
2023-03-08T22:36:29.034Z,16.10
2023-03-08T22:44:34.686Z,16.30
2023-03-08T22:52:42.612Z,16.30
2023-03-08T23:00:48.059Z,16.40
2023-03-08T23:08:56.104Z,16.50
2023-03-08T23:17:01.706Z,16.30
2023-03-08T23:25:10.941Z,16.80
2023-03-08T23:33:16.443Z,16.60
2023-03-08T23:41:24.535Z,15.40
2023-03-08T23:49:30.520Z,16.40
2023-03-08T23:57:38.398Z,16.40
